Fredericksburg, Ohio
Current Conditions -  °F | °C
As of 3:56 AM on Saturday 25 Oct 2014 (Local Time) from KBJJ Reporting Station
Scattered Clouds Scattered Clouds  
Wind Chill: 45°   Ceiling: Unl
Heat Index: 47°   Visibility: 10mi
Dew Point: 39°   Wind: 5mph
Humidity: 74%   Direction: 230°SW
Pressure: 29.97"   Gusts: NA
Location:  40.68°N, 81.87°W
Report Text: KBJJ 250756Z AUTO 23004KT 10SM SCT040 08/04 A2997 RMK AO2 SLP149 T00830039 TSNO
Loading
Personal Weather Stations






























Interactive Weather Map
Tropical Storm Tracking
New forecast layout! Learn more

10-Day Weather Forecast

Advertisements
Track Severe Weather on mobile